createdAt,value
2018-04-25T00:00:12.195Z,95185.98
2018-04-25T00:02:38.867Z,95182.81
2018-04-25T00:05:05.541Z,95179.66
2018-04-25T00:07:32.181Z,95171.81
2018-04-25T00:09:58.822Z,95177.07
2018-04-25T00:12:25.545Z,95194.40
2018-04-25T00:14:52.178Z,95190.57
2018-04-25T00:17:18.817Z,95191.55
2018-04-25T00:19:45.481Z,95201.83
2018-04-25T00:22:12.193Z,95201.45
2018-04-25T00:24:38.829Z,95197.54
2018-04-25T00:27:05.426Z,95199.09
2018-04-25T00:29:32.062Z,95202.21
2018-04-25T00:31:58.736Z,95211.11
2018-04-25T00:34:25.407Z,95211.69
2018-04-25T00:36:52.007Z,95210.18
2018-04-25T00:39:18.715Z,95213.46
2018-04-25T00:41:45.352Z,95218.14
2018-04-25T00:44:11.950Z,95214.09
2018-04-25T00:46:38.593Z,95214.09
2018-04-25T00:49:05.225Z,95214.83
2018-04-25T00:51:31.936Z,95213.42
2018-04-25T00:53:59.614Z,95211.16
2018-04-25T00:56:25.239Z,95204.38
2018-04-25T00:58:51.957Z,95203.91
2018-04-25T01:01:18.557Z,95211.55
2018-04-25T01:03:45.195Z,95215.28
2018-04-25T01:06:11.838Z,95214.31
2018-04-25T01:08:38.504Z,95207.08
2018-04-25T01:11:05.144Z,95212.42
2018-04-25T01:13:31.855Z,95203.48
2018-04-25T01:15:58.488Z,95204.00
2018-04-25T01:18:25.090Z,95196.66
2018-04-25T01:20:51.743Z,95195.77
2018-04-25T01:23:18.409Z,95199.12
2018-04-25T01:25:45.021Z,95205.06
2018-04-25T01:28:11.696Z,95200.92
2018-04-25T01:30:38.388Z,95201.18
2018-04-25T01:33:05.060Z,95199.16
2018-04-25T01:35:31.723Z,95196.39
2018-04-25T01:37:58.403Z,95201.14
2018-04-25T01:40:24.998Z,95197.78
2018-04-25T01:42:51.640Z,95199.70
2018-04-25T01:45:18.312Z,95197.34
2018-04-25T01:47:44.909Z,95190.52
2018-04-25T01:50:11.587Z,95194.83
2018-04-25T01:52:38.190Z,95186.69
2018-04-25T01:55:04.834Z,95194.19
2018-04-25T01:57:31.503Z,95191.15
2018-04-25T01:59:58.180Z,95197.27
2018-04-25T02:02:24.824Z,95200.85
2018-04-25T02:04:51.454Z,95196.63
2018-04-25T02:07:18.115Z,95198.34
2018-04-25T02:09:44.762Z,95200.25
2018-04-25T02:12:11.353Z,95202.41
2018-04-25T02:14:38.039Z,95202.69
2018-04-25T02:17:04.749Z,95194.94
2018-04-25T02:19:31.351Z,95190.05
2018-04-25T02:21:58.029Z,95198.91
2018-04-25T02:24:24.682Z,95199.35
2018-04-25T02:26:52.632Z,95198.59
2018-04-25T02:29:17.950Z,95190.86
2018-04-25T02:31:44.619Z,95194.90
2018-04-25T02:34:11.257Z,95191.48
2018-04-25T02:36:37.932Z,95196.08
2018-04-25T02:39:04.566Z,95198.38
2018-04-25T02:41:31.218Z,95201.70
2018-04-25T02:43:57.844Z,95197.03
2018-04-25T02:46:24.526Z,95203.09
2018-04-25T02:48:51.126Z,95201.16
2018-04-25T02:51:17.800Z,95206.41
2018-04-25T02:53:44.443Z,95204.23
2018-04-25T02:56:11.113Z,95202.84
2018-04-25T02:58:37.787Z,95198.67
2018-04-25T03:01:04.383Z,95204.23
2018-04-25T03:03:31.056Z,95192.59
2018-04-25T03:05:57.727Z,95208.41
2018-04-25T03:08:24.335Z,95214.79
2018-04-25T03:10:50.957Z,95212.67
2018-04-25T03:13:17.685Z,95213.31
2018-04-25T03:15:44.324Z,95212.88
2018-04-25T03:18:10.923Z,95218.00
2018-04-25T03:20:37.594Z,95224.64
2018-04-25T03:23:04.267Z,95218.20
2018-04-25T03:25:30.901Z,95219.23
2018-04-25T03:27:57.553Z,95216.81
2018-04-25T03:30:24.147Z,95214.23
2018-04-25T03:32:50.824Z,95206.78
2018-04-25T03:35:18.712Z,95211.28
2018-04-25T03:37:44.056Z,95214.56
2018-04-25T03:40:10.702Z,95218.44
2018-04-25T03:42:37.378Z,95216.14
2018-04-25T03:45:04.043Z,95219.84
2018-04-25T03:47:30.751Z,95218.31
2018-04-25T03:49:57.384Z,95217.86
2018-04-25T03:52:23.983Z,95220.73
2018-04-25T03:54:51.451Z,95226.79
2018-04-25T03:57:18.088Z,95227.09
2018-04-25T03:59:44.725Z,95225.13
2018-04-25T04:02:11.359Z,95233.83
2018-04-25T04:04:38.093Z,95238.50
2018-04-25T04:07:04.740Z,95245.11
2018-04-25T04:09:31.371Z,95248.99
2018-04-25T04:11:58.047Z,95251.84
2018-04-25T04:14:24.689Z,95259.09
2018-04-25T04:16:51.374Z,95249.67
2018-04-25T04:19:18.065Z,95251.77
2018-04-25T04:21:44.694Z,95243.70
2018-04-25T04:24:11.359Z,95245.19
2018-04-25T04:26:38.003Z,95245.37
2018-04-25T04:29:04.634Z,95245.91
2018-04-25T04:31:32.649Z,95246.27
2018-04-25T04:33:57.945Z,95250.59
2018-04-25T04:36:24.649Z,95252.55
2018-04-25T04:38:51.322Z,95255.25
2018-04-25T04:41:17.921Z,95252.77
2018-04-25T04:43:44.641Z,95260.13
2018-04-25T04:46:11.343Z,95268.72
2018-04-25T04:48:37.937Z,95266.59
2018-04-25T04:51:04.634Z,95264.42
2018-04-25T04:53:31.319Z,95264.20
2018-04-25T04:55:58.017Z,95263.53
2018-04-25T04:58:24.661Z,95266.25
2018-04-25T05:00:51.372Z,95263.41
2018-04-25T05:03:17.981Z,95259.63
2018-04-25T05:05:44.622Z,95264.16
2018-04-25T05:08:11.258Z,95262.23
2018-04-25T05:10:37.919Z,95257.96
2018-04-25T05:13:04.567Z,95259.08
2018-04-25T05:15:31.203Z,95258.02
2018-04-25T05:17:57.929Z,95261.07
2018-04-25T05:20:24.620Z,95262.93
2018-04-25T05:22:51.267Z,95266.53
2018-04-25T05:25:17.904Z,95263.91
2018-04-25T05:27:44.581Z,95265.92
2018-04-25T05:30:11.263Z,95271.14
2018-04-25T05:32:37.865Z,95275.09
2018-04-25T05:35:04.497Z,95272.23
2018-04-25T05:37:31.184Z,95277.94
2018-04-25T05:40:01.180Z,95277.02
2018-04-25T05:42:27.823Z,95275.42
2018-04-25T05:44:54.508Z,95283.39
2018-04-25T05:47:21.185Z,95278.55
2018-04-25T05:49:47.829Z,95283.89
2018-04-25T05:52:14.481Z,95286.34
2018-04-25T05:54:41.164Z,95289.24
2018-04-25T05:57:07.796Z,95285.41
2018-04-25T05:59:34.392Z,95290.08
2018-04-25T06:02:01.063Z,95291.71
2018-04-25T06:04:27.662Z,95293.99
2018-04-25T06:06:54.334Z,95303.29
2018-04-25T06:09:20.969Z,95294.94
2018-04-25T06:11:47.618Z,95296.53
2018-04-25T06:14:14.245Z,95292.14
2018-04-25T06:16:40.957Z,95290.78
2018-04-25T06:19:07.572Z,95288.91
2018-04-25T06:21:34.287Z,95294.36
2018-04-25T06:24:00.978Z,95294.61
2018-04-25T06:26:27.628Z,95299.23
2018-04-25T06:28:54.383Z,95301.13
2018-04-25T06:31:21.006Z,95298.48
2018-04-25T06:33:47.725Z,95294.47
2018-04-25T06:36:15.410Z,95298.77
2018-04-25T06:38:42.088Z,95294.02
2018-04-25T06:41:08.714Z,95295.05
2018-04-25T06:43:35.354Z,95290.14
2018-04-25T06:46:02.066Z,95285.92
2018-04-25T06:48:28.767Z,95284.53
2018-04-25T06:50:55.439Z,95287.22
2018-04-25T06:53:22.088Z,95283.42
2018-04-25T06:55:48.755Z,95274.57
2018-04-25T06:58:15.438Z,95286.56
2018-04-25T07:00:42.103Z,95282.95
2018-04-25T07:03:08.701Z,95288.09
2018-04-25T07:05:35.643Z,95296.38
2018-04-25T07:08:02.423Z,95289.33
2018-04-25T07:10:29.008Z,95288.47
2018-04-25T07:12:58.126Z,95293.12
2018-04-25T07:15:24.928Z,95289.11
2018-04-25T07:17:51.635Z,95292.39
2018-04-25T07:20:18.265Z,95291.63
2018-04-25T07:22:46.372Z,95294.30
2018-04-25T07:25:11.852Z,95302.69
2018-04-25T07:27:38.516Z,95296.38
2018-04-25T07:30:05.128Z,95297.86
2018-04-25T07:32:31.859Z,95300.51
2018-04-25T07:34:58.505Z,95295.66
2018-04-25T07:37:25.152Z,95302.28
2018-04-25T07:39:51.848Z,95296.63
2018-04-25T07:42:18.512Z,95299.89
2018-04-25T07:44:45.368Z,95293.98
2018-04-25T07:47:12.004Z,95298.19
2018-04-25T07:49:38.689Z,95297.27
2018-04-25T07:52:05.305Z,95295.06
2018-04-25T07:54:32.579Z,95298.23
2018-04-25T07:56:59.209Z,95300.19
2018-04-25T07:59:26.329Z,95294.55
2018-04-25T08:01:52.978Z,95289.44
2018-04-25T08:04:19.622Z,95285.84
2018-04-25T08:06:46.296Z,95288.86
2018-04-25T08:09:12.898Z,95281.33
2018-04-25T08:11:39.583Z,95280.08
2018-04-25T08:14:06.237Z,95279.56
2018-04-25T08:16:32.908Z,95279.18
2018-04-25T08:18:59.630Z,95275.52
2018-04-25T08:21:26.346Z,95270.25
2018-04-25T08:23:53.023Z,95277.34
2018-04-25T08:26:19.643Z,95274.37
2018-04-25T08:28:46.298Z,95272.02
2018-04-25T08:31:13.014Z,95266.94
2018-04-25T08:33:39.642Z,95263.33
2018-04-25T08:36:06.263Z,95259.59
2018-04-25T08:38:32.913Z,95258.53
2018-04-25T08:40:59.559Z,95261.57
2018-04-25T08:43:26.243Z,95255.58
2018-04-25T08:45:52.947Z,95258.08
2018-04-25T08:48:19.577Z,95251.87
2018-04-25T08:50:46.242Z,95252.25
2018-04-25T08:53:12.941Z,95250.73
2018-04-25T08:55:39.720Z,95244.24
2018-04-25T08:58:06.434Z,95246.91
2018-04-25T09:00:33.089Z,95239.07
2018-04-25T09:02:59.764Z,95239.50
2018-04-25T09:05:26.445Z,95238.23
2018-04-25T09:07:53.178Z,95240.07
2018-04-25T09:10:19.862Z,95232.93
2018-04-25T09:12:46.557Z,95229.84
2018-04-25T09:15:13.215Z,95231.44
2018-04-25T09:17:39.848Z,95229.99
2018-04-25T09:20:06.504Z,95222.86
2018-04-25T09:22:33.171Z,95223.85
2018-04-25T09:24:59.814Z,95220.19
2018-04-25T09:27:26.573Z,95217.02
2018-04-25T09:29:53.167Z,95214.61
2018-04-25T09:32:19.994Z,95217.66
2018-04-25T09:34:46.634Z,95207.27
2018-04-25T09:37:13.369Z,95207.75
2018-04-25T09:39:39.971Z,95200.55
2018-04-25T09:42:06.707Z,95200.13
2018-04-25T09:44:33.305Z,95195.31
2018-04-25T09:46:59.980Z,95194.00
2018-04-25T09:49:26.664Z,95187.80
2018-04-25T09:51:53.322Z,95186.63
2018-04-25T09:54:19.987Z,95183.41
2018-04-25T09:56:46.622Z,95178.47
2018-04-25T09:59:13.288Z,95178.65
2018-04-25T10:01:39.988Z,95164.05
2018-04-25T10:04:06.710Z,95165.62
2018-04-25T10:06:33.346Z,95168.44
2018-04-25T10:09:00.033Z,95163.59
2018-04-25T10:11:27.147Z,95156.23
2018-04-25T10:13:53.810Z,95154.52
2018-04-25T10:16:20.412Z,95153.44
2018-04-25T10:18:47.043Z,95145.06
2018-04-25T10:21:13.691Z,95143.63
2018-04-25T10:23:40.393Z,95140.14
2018-04-25T10:26:07.059Z,95137.04
2018-04-25T10:28:33.724Z,95140.14
2018-04-25T10:31:00.357Z,95137.09
2018-04-25T10:33:27.008Z,95137.67
2018-04-25T10:35:53.768Z,95133.18
2018-04-25T10:38:20.537Z,95132.27
2018-04-25T10:40:47.155Z,95131.20
2018-04-25T10:43:15.203Z,95126.58
2018-04-25T10:45:40.646Z,95124.22
2018-04-25T10:48:07.274Z,95119.80
2018-04-25T10:50:33.883Z,95119.08
2018-04-25T10:53:00.708Z,95117.58
2018-04-25T10:55:27.404Z,95115.91
2018-04-25T10:57:53.955Z,95113.23
2018-04-25T11:00:20.610Z,95107.77
2018-04-25T11:02:47.332Z,95103.20
2018-04-25T11:05:14.026Z,95107.09
2018-04-25T11:07:40.663Z,95100.29
2018-04-25T11:10:07.343Z,95099.56
2018-04-25T11:12:33.973Z,95093.97
2018-04-25T11:15:00.632Z,95095.74
2018-04-25T11:17:27.338Z,95086.25
2018-04-25T11:19:53.951Z,95087.09
2018-04-25T11:22:20.625Z,95085.28
2018-04-25T11:24:47.311Z,95081.47
2018-04-25T11:27:13.955Z,95081.44
2018-04-25T11:29:40.598Z,95072.26
2018-04-25T11:32:07.286Z,95066.19
2018-04-25T11:34:33.929Z,95075.34
2018-04-25T11:37:00.560Z,95071.25
2018-04-25T11:39:27.296Z,95069.22
2018-04-25T11:41:54.035Z,95060.96
2018-04-25T11:44:20.657Z,95060.20
2018-04-25T11:46:47.334Z,95057.61
2018-04-25T11:49:13.969Z,95054.13
2018-04-25T11:51:40.573Z,95044.56
2018-04-25T11:54:07.241Z,95039.35
2018-04-25T11:56:33.900Z,95038.80
2018-04-25T11:59:00.558Z,95038.16
2018-04-25T12:01:27.241Z,95034.02
2018-04-25T12:03:53.874Z,95029.33
2018-04-25T12:06:20.556Z,95022.24
2018-04-25T12:08:47.153Z,95006.92
2018-04-25T12:11:13.818Z,95012.44
2018-04-25T12:13:40.422Z,95005.78
2018-04-25T12:16:07.102Z,95003.30
2018-04-25T12:18:33.711Z,95003.73
2018-04-25T12:21:00.345Z,95001.15
2018-04-25T12:23:27.053Z,94997.31
2018-04-25T12:25:53.716Z,94991.73
2018-04-25T12:28:20.394Z,94986.50
2018-04-25T12:30:46.989Z,94979.78
2018-04-25T12:33:13.675Z,94977.91
2018-04-25T12:35:40.403Z,94979.44
2018-04-25T12:38:07.036Z,94972.31
2018-04-25T12:40:33.689Z,94966.89
2018-04-25T12:43:00.367Z,94978.31
2018-04-25T12:45:26.979Z,94976.88
2018-04-25T12:47:53.657Z,94969.74
2018-04-25T12:50:20.264Z,94972.92
2018-04-25T12:52:46.949Z,94971.01
2018-04-25T12:55:13.542Z,94972.31
2018-04-25T12:57:40.183Z,94965.69
2018-04-25T13:00:06.832Z,94963.91
2018-04-25T13:02:33.506Z,94968.02
2018-04-25T13:05:00.133Z,94966.12
2018-04-25T13:07:26.798Z,94969.11
2018-04-25T13:09:53.472Z,94957.61
2018-04-25T13:12:20.082Z,94963.54
2018-04-25T13:14:46.717Z,94957.20
2018-04-25T13:17:13.375Z,94958.75
2018-04-25T13:19:40.121Z,94955.73
2018-04-25T13:22:06.904Z,94950.31
2018-04-25T13:24:33.515Z,94949.83
2018-04-25T13:27:00.139Z,94951.87
2018-04-25T13:29:26.831Z,94943.48
2018-04-25T13:31:53.468Z,94938.47
2018-04-25T13:34:20.110Z,94948.36
2018-04-25T13:36:46.796Z,94948.45
2018-04-25T13:39:13.428Z,94941.75
2018-04-25T13:41:40.069Z,94948.20
2018-04-25T13:44:06.732Z,94937.27
2018-04-25T13:46:33.365Z,94936.38
2018-04-25T13:49:00.024Z,94940.80
2018-04-25T13:51:26.658Z,94939.78
2018-04-25T13:53:53.304Z,94932.16
2018-04-25T13:56:19.961Z,94934.25
2018-04-25T13:58:46.635Z,94929.17
2018-04-25T14:01:13.248Z,94930.95
2018-04-25T14:03:40.915Z,94925.71
2018-04-25T14:06:07.628Z,94932.78
2018-04-25T14:08:34.205Z,94915.17
2018-04-25T14:11:00.845Z,94928.70
2018-04-25T14:13:27.498Z,94924.50
2018-04-25T14:15:54.129Z,94924.20
2018-04-25T14:18:20.818Z,94921.45
2018-04-25T14:20:47.479Z,94921.45
2018-04-25T14:23:14.106Z,94925.78
2018-04-25T14:25:40.740Z,94922.64
2018-04-25T14:28:07.397Z,94923.13
2018-04-25T14:30:34.002Z,94921.73
2018-04-25T14:33:00.655Z,94916.25
2018-04-25T14:35:27.348Z,94922.90
2018-04-25T14:37:53.944Z,94920.30
2018-04-25T14:40:20.586Z,94926.55
2018-04-25T14:42:47.227Z,94922.23
2018-04-25T14:45:13.896Z,94918.38
2018-04-25T14:47:40.535Z,94927.28
2018-04-25T14:50:07.231Z,94924.70
2018-04-25T14:52:33.905Z,94925.49
2018-04-25T14:55:00.523Z,94931.52
2018-04-25T14:57:27.158Z,94923.61
2018-04-25T14:59:53.832Z,94926.63
2018-04-25T15:02:20.450Z,94932.02
2018-04-25T15:04:47.085Z,94933.20
2018-04-25T15:07:13.779Z,94922.71
2018-04-25T15:09:40.380Z,94921.66
2018-04-25T15:12:07.013Z,94918.34
2018-04-25T15:14:33.640Z,94920.66
2018-04-25T15:17:00.285Z,94910.39
2018-04-25T15:19:26.935Z,94912.89
2018-04-25T15:21:53.599Z,94909.22
2018-04-25T15:24:20.240Z,94908.80
2018-04-25T15:26:46.853Z,94908.50
2018-04-25T15:29:13.484Z,94905.30
2018-04-25T15:31:40.134Z,94904.73
2018-04-25T15:34:06.862Z,94903.48
2018-04-25T15:36:33.457Z,94905.52
2018-04-25T15:39:00.105Z,94898.09
2018-04-25T15:41:26.743Z,94899.23
2018-04-25T15:43:53.382Z,94897.69
2018-04-25T15:46:20.017Z,94895.42
2018-04-25T15:48:46.696Z,94887.58
2018-04-25T15:51:13.317Z,94884.91
2018-04-25T15:53:39.949Z,94885.27
2018-04-25T15:56:06.620Z,94889.73
2018-04-25T15:58:33.229Z,94886.86
2018-04-25T16:00:59.941Z,94882.38
2018-04-25T16:03:26.581Z,94889.09
2018-04-25T16:05:53.620Z,94890.11
2018-04-25T16:08:20.234Z,94880.23
2018-04-25T16:10:46.904Z,94881.48
2018-04-25T16:13:13.539Z,94881.78
2018-04-25T16:15:40.186Z,94879.14
2018-04-25T16:18:06.834Z,94884.45
2018-04-25T16:20:33.441Z,94884.12
2018-04-25T16:23:00.119Z,94892.56
2018-04-25T16:25:26.733Z,94887.70
2018-04-25T16:27:53.360Z,94890.83
2018-04-25T16:30:20.062Z,94889.92
2018-04-25T16:32:46.691Z,94895.27
2018-04-25T16:35:13.327Z,94894.47
2018-04-25T16:37:39.980Z,94897.59
2018-04-25T16:40:06.612Z,94892.39
2018-04-25T16:42:33.213Z,94892.13
2018-04-25T16:44:59.883Z,94899.09
2018-04-25T16:47:26.517Z,94898.12
2018-04-25T16:49:53.156Z,94895.55
2018-04-25T16:52:19.820Z,94896.22
2018-04-25T16:54:46.458Z,94897.17
2018-04-25T16:57:13.132Z,94899.64
2018-04-25T16:59:39.733Z,94894.18
2018-04-25T17:02:06.369Z,94907.03
2018-04-25T17:04:32.974Z,94904.31
2018-04-25T17:06:59.642Z,94904.59
2018-04-25T17:09:26.249Z,94911.03
2018-04-25T17:11:52.922Z,94910.80
2018-04-25T17:14:19.559Z,94911.94
2018-04-25T17:16:46.154Z,94915.16
2018-04-25T17:19:12.888Z,94912.95
2018-04-25T17:21:39.511Z,94918.28
2018-04-25T17:24:06.124Z,94915.38
2018-04-25T17:26:32.761Z,94920.70
2018-04-25T17:28:59.438Z,94918.45
2018-04-25T17:31:26.072Z,94919.64
2018-04-25T17:33:52.702Z,94927.11
2018-04-25T17:36:19.343Z,94926.30
2018-04-25T17:38:46.031Z,94926.39
2018-04-25T17:41:12.704Z,94929.44
2018-04-25T17:43:39.305Z,94926.56
2018-04-25T17:46:06.020Z,94931.82
2018-04-25T17:48:32.649Z,94935.34
2018-04-25T17:50:59.251Z,94931.72
2018-04-25T17:53:25.924Z,94939.20
2018-04-25T17:55:52.529Z,94949.33
2018-04-25T17:58:19.162Z,94946.00
2018-04-25T18:00:45.804Z,94958.20
2018-04-25T18:03:12.470Z,94958.94
2018-04-25T18:05:39.159Z,94958.67
2018-04-25T18:08:05.785Z,94960.14
2018-04-25T18:10:32.392Z,94956.90
2018-04-25T18:12:59.066Z,94954.20
2018-04-25T18:15:25.742Z,94956.20
2018-04-25T18:17:52.381Z,94963.11
2018-04-25T18:20:19.048Z,94965.82
2018-04-25T18:22:45.736Z,94973.22
2018-04-25T18:25:12.363Z,94979.04
2018-04-25T18:27:38.971Z,94983.86
2018-04-25T18:30:05.636Z,94989.56
2018-04-25T18:32:32.277Z,94995.68
2018-04-25T18:34:58.913Z,94997.06
2018-04-25T18:37:25.652Z,95000.95
2018-04-25T18:39:52.284Z,95010.03
2018-04-25T18:42:18.905Z,95006.17
2018-04-25T18:44:45.581Z,95006.37
2018-04-25T18:47:12.212Z,94999.91
2018-04-25T18:49:38.853Z,94997.49
2018-04-25T18:52:05.492Z,95003.95
2018-04-25T18:54:35.169Z,95003.69
2018-04-25T18:57:01.759Z,95011.20
2018-04-25T18:59:28.428Z,95007.61
2018-04-25T19:01:55.089Z,95006.81
2018-04-25T19:04:21.753Z,95009.83
2018-04-25T19:06:48.384Z,95014.61
2018-04-25T19:09:15.023Z,95014.05
2018-04-25T19:11:41.617Z,95011.48
2018-04-25T19:14:08.260Z,95010.88
2018-04-25T19:16:34.936Z,95015.34
2018-04-25T19:19:01.561Z,95009.59
2018-04-25T19:21:28.201Z,95010.56
2018-04-25T19:23:54.878Z,95014.39
2018-04-25T19:26:21.511Z,95015.70
2018-04-25T19:28:48.117Z,95016.48
2018-04-25T19:31:14.751Z,95016.62
2018-04-25T19:33:41.511Z,95020.17
2018-04-25T19:36:08.060Z,95018.71
2018-04-25T19:38:34.698Z,95018.33
2018-04-25T19:41:01.373Z,95024.17
2018-04-25T19:43:28.013Z,95029.53
2018-04-25T19:45:54.615Z,95026.80
2018-04-25T19:48:21.251Z,95029.73
2018-04-25T19:50:47.889Z,95022.63
2018-04-25T19:53:14.556Z,95022.77
2018-04-25T19:55:41.232Z,95024.61
2018-04-25T19:58:07.838Z,95031.56
2018-04-25T20:00:34.477Z,95026.81
2018-04-25T20:03:01.158Z,95027.08
2018-04-25T20:05:27.828Z,95026.11
2018-04-25T20:07:54.430Z,95023.97
2018-04-25T20:10:21.076Z,95027.94
2018-04-25T20:12:47.740Z,95027.45
2018-04-25T20:15:14.386Z,95027.34
2018-04-25T20:17:41.049Z,95027.71
2018-04-25T20:20:07.714Z,95028.60
2018-04-25T20:22:34.293Z,95029.33
2018-04-25T20:25:00.965Z,95025.80
2018-04-25T20:27:27.596Z,95029.05
2018-04-25T20:29:54.259Z,95032.15
2018-04-25T20:32:20.865Z,95031.42
2018-04-25T20:34:47.562Z,95031.80
2018-04-25T20:37:14.234Z,95034.50
2018-04-25T20:39:40.882Z,95033.34
2018-04-25T20:42:07.475Z,95036.60
2018-04-25T20:44:34.122Z,95040.98
2018-04-25T20:47:00.762Z,95033.27
2018-04-25T20:49:27.413Z,95040.78
2018-04-25T20:51:54.086Z,95041.03
2018-04-25T20:54:20.718Z,95047.73
2018-04-25T20:56:47.359Z,95044.52
2018-04-25T20:59:14.002Z,95044.91
2018-04-25T21:01:40.609Z,95048.46
2018-04-25T21:04:07.254Z,95051.94
2018-04-25T21:06:33.942Z,95044.66
2018-04-25T21:09:00.547Z,95050.88
2018-04-25T21:11:27.212Z,95043.66
2018-04-25T21:13:53.847Z,95045.74
2018-04-25T21:16:20.485Z,95044.84
2018-04-25T21:18:47.180Z,95040.34
2018-04-25T21:21:13.828Z,95039.70
2018-04-25T21:23:40.468Z,95047.38
2018-04-25T21:26:07.102Z,95040.80
2018-04-25T21:28:33.779Z,95041.88
2018-04-25T21:31:00.417Z,95042.13
2018-04-25T21:33:27.052Z,95037.44
2018-04-25T21:35:53.685Z,95042.11
2018-04-25T21:38:20.364Z,95040.16
2018-04-25T21:40:47.000Z,95043.59
2018-04-25T21:43:13.666Z,95040.65
2018-04-25T21:45:40.305Z,95042.81
2018-04-25T21:48:06.908Z,95041.65
2018-04-25T21:50:33.585Z,95037.23
2018-04-25T21:53:00.305Z,95040.26
2018-04-25T21:55:26.939Z,95037.50
2018-04-25T21:57:53.574Z,95038.87
2018-04-25T22:00:20.212Z,95044.27
2018-04-25T22:02:46.841Z,95043.81
2018-04-25T22:05:13.441Z,95047.91
2018-04-25T22:07:40.139Z,95054.69
2018-04-25T22:10:06.740Z,95053.67
2018-04-25T22:12:33.413Z,95053.25
2018-04-25T22:15:00.056Z,95050.02
2018-04-25T22:17:26.731Z,95054.86
2018-04-25T22:19:53.557Z,95057.85
2018-04-25T22:22:20.278Z,95061.70
2018-04-25T22:24:46.920Z,95064.48
2018-04-25T22:27:13.562Z,95058.05
2018-04-25T22:29:40.224Z,95062.27
2018-04-25T22:32:06.877Z,95061.52
2018-04-25T22:34:33.501Z,95055.10
2018-04-25T22:37:00.158Z,95055.05
2018-04-25T22:39:26.788Z,95055.19
2018-04-25T22:41:53.436Z,95053.80
2018-04-25T22:44:20.121Z,95055.43
2018-04-25T22:46:46.793Z,95053.05
2018-04-25T22:49:13.427Z,95054.86
2018-04-25T22:51:40.037Z,95053.09
2018-04-25T22:54:06.699Z,95054.16
2018-04-25T22:56:33.339Z,95047.91
2018-04-25T22:59:00.018Z,95050.05
2018-04-25T23:01:26.637Z,95045.77
2018-04-25T23:03:53.349Z,95045.81
2018-04-25T23:06:19.986Z,95050.55
2018-04-25T23:08:46.584Z,95044.61
2018-04-25T23:11:13.292Z,95044.78
2018-04-25T23:13:39.984Z,95044.61
2018-04-25T23:16:06.615Z,95038.25
2018-04-25T23:18:33.244Z,95040.34
2018-04-25T23:20:59.851Z,95038.67
2018-04-25T23:23:26.518Z,95045.67
2018-04-25T23:25:55.552Z,95038.77
2018-04-25T23:28:22.199Z,95040.04
2018-04-25T23:30:48.907Z,95044.09
2018-04-25T23:33:15.587Z,95034.72
2018-04-25T23:35:42.245Z,95036.55
2018-04-25T23:38:08.876Z,95033.00
2018-04-25T23:40:35.510Z,95032.00
2018-04-25T23:43:02.201Z,95030.09
2018-04-25T23:45:28.841Z,95031.63
2018-04-25T23:47:55.504Z,95027.20
2018-04-25T23:50:22.105Z,95033.47
2018-04-25T23:52:48.787Z,95030.28
2018-04-25T23:55:15.387Z,95025.78
2018-04-25T23:57:42.063Z,95033.23
